createdAt,value
2022-10-05T00:00:49.024Z,79.20
2022-10-05T00:03:15.537Z,79.21
2022-10-05T00:05:42.332Z,79.10
2022-10-05T00:08:15.341Z,79.15
2022-10-05T00:10:43.092Z,79.12
2022-10-05T00:13:25.118Z,79.32
2022-10-05T00:15:59.293Z,79.28
2022-10-05T00:18:27.173Z,79.08
2022-10-05T00:20:54.311Z,79.19
2022-10-05T00:23:31.038Z,79.22
2022-10-05T00:26:09.759Z,79.08
2022-10-05T00:28:36.184Z,79.03
2022-10-05T00:31:02.655Z,79.19
2022-10-05T00:33:29.292Z,78.95
2022-10-05T00:35:55.671Z,79.29
2022-10-05T00:38:22.567Z,79.29
2022-10-05T00:41:02.553Z,79.36
2022-10-05T00:43:59.693Z,79.43
2022-10-05T00:47:02.955Z,79.28
2022-10-05T00:49:53.363Z,79.37
2022-10-05T00:52:39.904Z,79.68
2022-10-05T00:55:25.061Z,79.63
2022-10-05T00:58:02.210Z,79.52
2022-10-05T01:00:28.923Z,79.67
2022-10-05T01:03:12.135Z,79.54
2022-10-05T01:06:33.836Z,79.92
2022-10-05T01:09:05.940Z,79.82
2022-10-05T01:11:52.859Z,79.81
2022-10-05T01:14:27.321Z,79.92
2022-10-05T01:17:18.631Z,80.15
2022-10-05T01:19:59.851Z,80.28
2022-10-05T01:23:03.359Z,80.44
2022-10-05T01:25:54.811Z,80.21
2022-10-05T01:28:37.782Z,80.20
2022-10-05T01:31:37.131Z,80.67
2022-10-05T01:34:29.297Z,80.66
2022-10-05T01:37:01.116Z,80.72
2022-10-05T01:39:45.852Z,80.86
2022-10-05T01:42:21.274Z,80.81
2022-10-05T01:45:21.686Z,81.06
2022-10-05T01:47:52.902Z,81.08
2022-10-05T01:50:50.082Z,81.31
2022-10-05T01:53:37.105Z,81.49
2022-10-05T01:56:30.816Z,81.63
2022-10-05T01:59:27.548Z,81.79
2022-10-05T02:02:14.238Z,81.90
2022-10-05T02:05:02.981Z,81.91
2022-10-05T02:07:39.986Z,81.77
2022-10-05T02:10:20.476Z,81.95
2022-10-05T02:12:51.663Z,82.23
2022-10-05T02:15:24.035Z,82.42
2022-10-05T02:17:56.223Z,82.36
2022-10-05T02:20:40.126Z,82.61
2022-10-05T02:23:13.664Z,82.53
2022-10-05T02:25:46.194Z,82.72
2022-10-05T02:28:18.066Z,83.11
2022-10-05T02:30:53.926Z,82.86
2022-10-05T02:33:31.869Z,82.75
2022-10-05T02:36:13.738Z,83.28
2022-10-05T02:38:54.296Z,83.18
2022-10-05T02:41:33.140Z,83.48
2022-10-05T02:44:25.585Z,83.51
2022-10-05T02:46:58.233Z,83.69
2022-10-05T02:49:43.068Z,83.55
2022-10-05T02:52:26.890Z,83.59
2022-10-05T02:55:19.382Z,83.60
2022-10-05T02:57:53.913Z,83.86
2022-10-05T03:00:23.293Z,83.48
2022-10-05T03:03:06.365Z,83.51
2022-10-05T03:05:47.178Z,83.73
2022-10-05T03:08:25.850Z,83.65
2022-10-05T03:11:25.518Z,83.21
2022-10-05T03:14:01.046Z,83.35
2022-10-05T03:16:44.684Z,83.04
2022-10-05T03:19:26.665Z,83.16
2022-10-05T03:22:08.011Z,82.93
2022-10-05T03:25:25.575Z,83.17
2022-10-05T03:28:01.091Z,82.80
2022-10-05T03:30:37.512Z,82.67
2022-10-05T03:33:22.303Z,82.58
2022-10-05T03:36:13.731Z,82.41
2022-10-05T03:38:55.305Z,82.39
2022-10-05T03:41:34.960Z,82.27
2022-10-05T03:44:16.953Z,82.25
2022-10-05T03:46:54.455Z,82.01
2022-10-05T03:49:50.018Z,81.83
2022-10-05T03:52:23.281Z,81.90
2022-10-05T03:55:00.151Z,81.73
2022-10-05T03:57:29.481Z,82.03
2022-10-05T04:00:10.043Z,81.48
2022-10-05T04:02:51.155Z,81.08
2022-10-05T04:05:35.894Z,80.90
2022-10-05T04:08:11.851Z,80.77
2022-10-05T04:10:47.020Z,80.83
2022-10-05T04:13:20.521Z,80.78
2022-10-05T04:16:04.003Z,80.72
2022-10-05T04:18:41.504Z,80.63
2022-10-05T04:21:13.869Z,80.43
2022-10-05T04:23:53.560Z,80.50
2022-10-05T04:26:30.231Z,80.22
2022-10-05T04:29:06.456Z,80.14
2022-10-05T04:31:51.971Z,80.00
2022-10-05T04:34:33.599Z,79.94
2022-10-05T04:37:06.257Z,80.18
2022-10-05T04:39:57.112Z,80.07
2022-10-05T04:42:43.615Z,80.10
2022-10-05T04:45:26.344Z,80.13
2022-10-05T04:48:37.835Z,79.99
2022-10-05T04:51:28.134Z,79.99
2022-10-05T04:53:58.839Z,79.96
2022-10-05T04:56:40.231Z,79.91
2022-10-05T04:59:27.955Z,79.68
2022-10-05T05:02:14.080Z,79.71
2022-10-05T05:04:40.365Z,79.59
2022-10-05T05:07:28.225Z,79.12
2022-10-05T05:09:57.522Z,79.23
2022-10-05T05:12:42.585Z,78.86
2022-10-05T05:15:31.100Z,78.45
2022-10-05T05:18:15.839Z,78.69
2022-10-05T05:20:56.029Z,78.42
2022-10-05T05:23:48.612Z,78.13
2022-10-05T05:26:36.817Z,78.15
2022-10-05T05:29:23.735Z,78.11
2022-10-05T05:32:03.497Z,78.08
2022-10-05T05:34:36.720Z,78.44
2022-10-05T05:37:14.267Z,78.37
2022-10-05T05:40:13.976Z,78.57
2022-10-05T05:42:48.356Z,78.98
2022-10-05T05:45:22.189Z,79.16
2022-10-05T05:47:52.753Z,79.23
2022-10-05T05:50:37.648Z,79.18
2022-10-05T05:53:17.360Z,79.10
2022-10-05T05:55:51.261Z,79.40
2022-10-05T05:58:25.399Z,79.46
2022-10-05T06:01:33.642Z,79.55
2022-10-05T06:04:09.545Z,79.84
2022-10-05T06:06:41.190Z,79.92
2022-10-05T06:09:15.078Z,80.08
2022-10-05T06:11:49.316Z,80.01
2022-10-05T06:14:31.994Z,79.84
2022-10-05T06:17:03.860Z,80.18
2022-10-05T06:19:36.240Z,80.45
2022-10-05T06:22:07.658Z,80.39
2022-10-05T06:25:05.095Z,80.19
2022-10-05T06:28:02.096Z,80.00
2022-10-05T06:30:41.290Z,79.87
2022-10-05T06:33:17.725Z,79.98
2022-10-05T06:36:21.209Z,79.91
2022-10-05T06:38:50.643Z,80.16
2022-10-05T06:41:38.692Z,79.96
2022-10-05T06:44:27.462Z,80.13
2022-10-05T06:47:21.467Z,80.10
2022-10-05T06:50:09.776Z,80.16
2022-10-05T06:52:51.198Z,80.23
2022-10-05T06:56:05.339Z,80.34
2022-10-05T06:59:01.279Z,80.01
2022-10-05T07:01:57.546Z,80.01
2022-10-05T07:04:49.559Z,79.89
2022-10-05T07:07:28.502Z,79.81
2022-10-05T07:10:17.398Z,80.15
2022-10-05T07:13:07.847Z,80.00
2022-10-05T07:15:44.725Z,79.66
2022-10-05T07:18:49.318Z,79.44
2022-10-05T07:21:30.832Z,79.71
2022-10-05T07:24:34.878Z,79.54
2022-10-05T07:27:19.430Z,79.37
2022-10-05T07:29:58.893Z,79.54
2022-10-05T07:32:34.922Z,79.47
2022-10-05T07:35:08.130Z,79.55
2022-10-05T07:37:55.811Z,79.53
2022-10-05T07:40:37.753Z,79.45
2022-10-05T07:43:19.049Z,79.35
2022-10-05T07:46:17.371Z,79.31
2022-10-05T07:49:16.142Z,79.58
2022-10-05T07:51:48.319Z,79.54
2022-10-05T07:54:26.895Z,79.39
2022-10-05T07:57:19.524Z,79.15
2022-10-05T08:00:08.882Z,79.33
2022-10-05T08:02:45.724Z,79.16
2022-10-05T08:05:15.592Z,79.23
2022-10-05T08:07:42.707Z,78.81
2022-10-05T08:10:27.849Z,78.96
2022-10-05T08:13:07.679Z,79.03
2022-10-05T08:15:40.332Z,78.64
2022-10-05T08:18:28.354Z,78.63
2022-10-05T08:20:58.801Z,78.90
2022-10-05T08:23:38.689Z,78.50
2022-10-05T08:26:17.251Z,78.49
2022-10-05T08:29:00.587Z,78.19
2022-10-05T08:31:31.790Z,78.23
2022-10-05T08:34:09.679Z,78.07
2022-10-05T08:36:38.747Z,77.97
2022-10-05T08:39:19.629Z,78.13
2022-10-05T08:42:14.072Z,78.20
2022-10-05T08:45:14.590Z,77.53
2022-10-05T08:48:23.021Z,77.63
2022-10-05T08:51:21.449Z,77.76
2022-10-05T08:54:09.671Z,77.71
2022-10-05T08:57:14.348Z,77.59
2022-10-05T09:00:02.215Z,77.15
2022-10-05T09:03:10.104Z,76.64
2022-10-05T09:05:51.393Z,76.62
2022-10-05T09:08:46.507Z,76.49
2022-10-05T09:11:38.047Z,76.61
2022-10-05T09:14:36.801Z,76.33
2022-10-05T09:17:30.643Z,75.84
2022-10-05T09:20:16.037Z,75.54
2022-10-05T09:23:00.556Z,75.19
2022-10-05T09:25:56.951Z,74.81
2022-10-05T09:28:39.133Z,74.53
2022-10-05T09:31:41.009Z,74.38
2022-10-05T09:34:47.925Z,74.21
2022-10-05T09:37:53.468Z,74.00
2022-10-05T09:40:41.611Z,73.61
2022-10-05T09:43:27.871Z,73.04
2022-10-05T09:46:33.748Z,72.79
2022-10-05T09:49:19.209Z,72.51
2022-10-05T09:52:00.416Z,72.58
2022-10-05T09:55:02.952Z,72.37
2022-10-05T09:58:02.645Z,72.07
2022-10-05T10:01:03.707Z,72.92
2022-10-05T10:04:10.130Z,72.53
2022-10-05T10:07:14.968Z,72.08
2022-10-05T10:09:59.944Z,71.95
2022-10-05T10:12:37.123Z,71.33
2022-10-05T10:15:34.871Z,72.08
2022-10-05T10:18:36.568Z,71.69
2022-10-05T10:21:30.256Z,71.94
2022-10-05T10:24:15.944Z,72.01
2022-10-05T10:26:54.340Z,71.48
2022-10-05T10:29:59.723Z,72.00
2022-10-05T10:32:38.564Z,72.39
2022-10-05T10:35:31.039Z,72.27
2022-10-05T10:38:34.701Z,72.14
2022-10-05T10:41:38.344Z,72.33
2022-10-05T10:44:26.475Z,72.45
2022-10-05T10:47:22.138Z,72.17
2022-10-05T10:50:29.163Z,72.65
2022-10-05T10:53:25.224Z,72.80
2022-10-05T10:56:13.944Z,72.74
2022-10-05T10:59:01.956Z,72.98
2022-10-05T11:01:50.148Z,72.85
2022-10-05T11:04:50.449Z,73.12
2022-10-05T11:07:34.940Z,73.08
2022-10-05T11:10:11.826Z,72.87
2022-10-05T11:13:02.847Z,72.97
2022-10-05T11:15:54.338Z,72.81
2022-10-05T11:18:29.491Z,72.66
2022-10-05T11:21:17.354Z,72.50
2022-10-05T11:23:52.888Z,72.65
2022-10-05T11:26:32.648Z,72.73
2022-10-05T11:29:14.213Z,72.35
2022-10-05T11:32:26.524Z,72.47
2022-10-05T11:35:12.494Z,72.25
2022-10-05T11:37:54.526Z,72.18
2022-10-05T11:40:43.020Z,72.32
2022-10-05T11:43:53.224Z,71.95
2022-10-05T11:46:47.960Z,71.88
2022-10-05T11:49:23.565Z,71.52
2022-10-05T11:52:17.587Z,71.63
2022-10-05T11:55:09.715Z,71.26
2022-10-05T11:57:51.709Z,71.13
2022-10-05T12:00:21.254Z,71.08
2022-10-05T12:02:59.759Z,71.27
2022-10-05T12:05:39.378Z,69.86
2022-10-05T12:08:36.665Z,69.61
2022-10-05T12:11:44.820Z,69.55
2022-10-05T12:14:21.671Z,69.58
2022-10-05T12:17:37.569Z,69.79
2022-10-05T12:20:22.669Z,69.09
2022-10-05T12:23:04.928Z,69.25
2022-10-05T12:25:44.643Z,69.08
2022-10-05T12:28:15.248Z,68.39
2022-10-05T12:31:18.025Z,67.86
2022-10-05T12:34:33.102Z,67.78
2022-10-05T12:37:36.525Z,68.27
2022-10-05T12:40:13.675Z,67.13
2022-10-05T12:43:22.053Z,67.00
2022-10-05T12:46:04.011Z,67.01
2022-10-05T12:48:40.077Z,66.61
2022-10-05T12:51:16.937Z,66.79
2022-10-05T12:53:57.440Z,66.51
2022-10-05T12:56:45.172Z,66.06
2022-10-05T12:59:28.195Z,66.62
2022-10-05T13:02:18.655Z,67.07
2022-10-05T13:04:59.585Z,67.04
2022-10-05T13:07:31.880Z,67.21
2022-10-05T13:10:10.343Z,67.60
2022-10-05T13:12:44.696Z,68.18
2022-10-05T13:15:22.415Z,68.18
2022-10-05T13:18:12.980Z,68.25
2022-10-05T13:20:46.865Z,68.47
2022-10-05T13:23:25.105Z,68.58
2022-10-05T13:26:08.831Z,68.58
2022-10-05T13:29:02.599Z,68.81
2022-10-05T13:31:37.469Z,68.31
2022-10-05T13:34:12.927Z,68.74
2022-10-05T13:36:58.763Z,68.33
2022-10-05T13:39:49.092Z,68.58
2022-10-05T13:42:20.153Z,68.42
2022-10-05T13:44:59.058Z,68.57
2022-10-05T13:47:38.999Z,68.37
2022-10-05T13:50:23.224Z,67.91
2022-10-05T13:53:28.215Z,67.29
2022-10-05T13:56:12.171Z,67.85
2022-10-05T13:58:47.815Z,67.11
2022-10-05T14:01:41.590Z,66.73
2022-10-05T14:04:19.783Z,66.83
2022-10-05T14:06:47.916Z,65.93
2022-10-05T14:09:20.040Z,65.93
2022-10-05T14:12:11.990Z,66.03
2022-10-05T14:14:49.145Z,64.69
2022-10-05T14:17:36.009Z,64.94
2022-10-05T14:20:18.723Z,64.80
2022-10-05T14:22:50.273Z,64.51
2022-10-05T14:25:19.238Z,64.05
2022-10-05T14:28:25.223Z,63.80
2022-10-05T14:31:09.132Z,63.15
2022-10-05T14:33:36.290Z,64.09
2022-10-05T14:36:03.655Z,63.67
2022-10-05T14:38:35.221Z,63.96
2022-10-05T14:41:19.763Z,63.92
2022-10-05T14:44:13.474Z,63.52
2022-10-05T14:46:52.936Z,64.28
2022-10-05T14:49:29.207Z,63.84
2022-10-05T14:51:56.696Z,63.70
2022-10-05T14:55:01.009Z,64.20
2022-10-05T14:58:02.338Z,64.70
2022-10-05T15:00:33.763Z,64.81
2022-10-05T15:03:05.889Z,64.75
2022-10-05T15:05:43.858Z,64.83
2022-10-05T15:08:44.968Z,64.62
2022-10-05T15:11:19.476Z,64.74
2022-10-05T15:13:49.057Z,64.51
2022-10-05T15:16:26.382Z,64.76
2022-10-05T15:19:12.852Z,64.94
2022-10-05T15:21:57.477Z,65.03
2022-10-05T15:24:26.616Z,65.44
2022-10-05T15:27:02.125Z,66.03
2022-10-05T15:30:24.510Z,65.93
2022-10-05T15:33:25.281Z,65.90
2022-10-05T15:36:09.423Z,65.86
2022-10-05T15:38:49.969Z,66.13
2022-10-05T15:41:46.678Z,66.26
2022-10-05T15:44:41.809Z,66.64
2022-10-05T15:47:25.533Z,66.79
2022-10-05T15:49:57.412Z,67.14
2022-10-05T15:52:43.928Z,67.15
2022-10-05T15:55:22.570Z,67.41
2022-10-05T15:58:14.831Z,67.47
2022-10-05T16:00:47.927Z,67.85
2022-10-05T16:03:44.432Z,67.85
2022-10-05T16:06:32.517Z,67.47
2022-10-05T16:09:42.664Z,67.22
2022-10-05T16:12:21.504Z,67.15
2022-10-05T16:14:56.791Z,66.86
2022-10-05T16:18:00.964Z,66.97
2022-10-05T16:20:49.663Z,66.79
2022-10-05T16:23:48.575Z,66.80
2022-10-05T16:26:31.660Z,67.05
2022-10-05T16:29:18.989Z,67.30
2022-10-05T16:31:59.046Z,67.07
2022-10-05T16:34:54.314Z,67.31
2022-10-05T16:37:50.226Z,67.29
2022-10-05T16:40:44.415Z,67.40
2022-10-05T16:43:52.461Z,67.66
2022-10-05T16:46:35.764Z,67.93
2022-10-05T16:49:19.554Z,68.16
2022-10-05T16:52:02.927Z,68.38
2022-10-05T16:54:41.357Z,68.47
2022-10-05T16:57:22.237Z,68.97
2022-10-05T17:00:13.449Z,69.02
2022-10-05T17:03:08.653Z,69.01
2022-10-05T17:06:00.150Z,69.55
2022-10-05T17:08:49.991Z,69.47
2022-10-05T17:11:55.429Z,69.52
2022-10-05T17:14:40.727Z,69.85
2022-10-05T17:17:27.864Z,69.93
2022-10-05T17:20:07.127Z,70.14
2022-10-05T17:22:39.956Z,70.15
2022-10-05T17:25:15.369Z,70.16
2022-10-05T17:28:36.189Z,70.24
2022-10-05T17:31:13.327Z,70.61
2022-10-05T17:34:01.492Z,70.80
2022-10-05T17:36:49.271Z,71.19
2022-10-05T17:39:42.951Z,71.35
2022-10-05T17:42:34.281Z,71.42
2022-10-05T17:45:20.635Z,71.42
2022-10-05T17:48:11.015Z,71.47
2022-10-05T17:51:00.382Z,71.64
2022-10-05T17:54:03.962Z,71.59
2022-10-05T17:56:50.367Z,71.52
2022-10-05T17:59:46.493Z,71.84
2022-10-05T18:02:36.359Z,71.65
2022-10-05T18:05:03.530Z,71.97
2022-10-05T18:07:32.154Z,72.04
2022-10-05T18:10:15.522Z,72.05
2022-10-05T18:12:45.320Z,72.41
2022-10-05T18:15:26.860Z,72.15
2022-10-05T18:18:32.664Z,72.20
2022-10-05T18:21:22.673Z,72.38
2022-10-05T18:23:51.887Z,72.31
2022-10-05T18:26:47.623Z,72.51
2022-10-05T18:29:54.525Z,72.71
2022-10-05T18:32:42.600Z,72.81
2022-10-05T18:35:12.531Z,72.83
2022-10-05T18:38:26.426Z,73.03
2022-10-05T18:41:00.451Z,72.89
2022-10-05T18:43:38.432Z,73.12
2022-10-05T18:46:24.235Z,73.18
2022-10-05T18:49:19.052Z,73.31
2022-10-05T18:51:51.698Z,73.05
2022-10-05T18:54:46.547Z,73.27
2022-10-05T18:57:46.123Z,73.35
2022-10-05T19:00:23.368Z,73.34
2022-10-05T19:02:57.134Z,73.52
2022-10-05T19:05:49.022Z,73.90
2022-10-05T19:08:39.251Z,73.83
2022-10-05T19:11:27.993Z,73.70
2022-10-05T19:14:17.357Z,73.56
2022-10-05T19:16:52.875Z,73.98
2022-10-05T19:19:41.020Z,74.54
2022-10-05T19:22:58.800Z,74.99
2022-10-05T19:25:44.496Z,74.99
2022-10-05T19:28:20.689Z,75.08
2022-10-05T19:30:47.065Z,75.15
2022-10-05T19:33:50.537Z,75.22
2022-10-05T19:36:59.454Z,75.31
2022-10-05T19:39:37.106Z,75.41
2022-10-05T19:42:21.292Z,75.66
2022-10-05T19:45:00.015Z,76.15
2022-10-05T19:47:47.438Z,76.39
2022-10-05T19:50:26.683Z,76.79
2022-10-05T19:53:24.134Z,78.06
2022-10-05T19:55:50.721Z,77.72
2022-10-05T19:58:25.962Z,78.01
2022-10-05T20:00:58.548Z,79.20
2022-10-05T20:03:29.288Z,78.91
2022-10-05T20:06:03.524Z,79.28
2022-10-05T20:08:49.910Z,79.40
2022-10-05T20:11:22.131Z,80.06
2022-10-05T20:14:03.780Z,80.03
2022-10-05T20:16:52.953Z,80.47
2022-10-05T20:19:56.125Z,81.02
2022-10-05T20:22:26.762Z,80.96
2022-10-05T20:24:58.483Z,81.90
2022-10-05T20:27:39.807Z,82.61
2022-10-05T20:30:07.949Z,82.52
2022-10-05T20:32:34.329Z,83.03
2022-10-05T20:35:00.860Z,83.60
2022-10-05T20:37:27.216Z,83.69
2022-10-05T20:39:53.617Z,83.92
2022-10-05T20:42:21.176Z,84.41
2022-10-05T20:44:51.776Z,83.82
2022-10-05T20:47:21.038Z,84.12
2022-10-05T20:49:47.466Z,84.91
2022-10-05T20:52:15.865Z,85.15
2022-10-05T20:54:42.471Z,85.27
2022-10-05T20:57:09.800Z,85.80
2022-10-05T20:59:36.886Z,85.75
2022-10-05T21:02:05.020Z,85.83
2022-10-05T21:04:41.015Z,85.91
2022-10-05T21:07:10.719Z,86.25
2022-10-05T21:09:39.118Z,85.74
2022-10-05T21:12:05.526Z,85.19
2022-10-05T21:14:34.558Z,85.37
2022-10-05T21:17:01.849Z,84.42
2022-10-05T21:19:35.314Z,84.10
2022-10-05T21:22:02.788Z,84.45
2022-10-05T21:24:29.371Z,84.39
2022-10-05T21:26:57.458Z,84.27
2022-10-05T21:29:24.972Z,83.86
2022-10-05T21:31:51.460Z,84.36
2022-10-05T21:34:18.013Z,84.62
2022-10-05T21:36:44.599Z,84.80
2022-10-05T21:39:14.364Z,85.29
2022-10-05T21:41:40.939Z,85.23
2022-10-05T21:44:07.473Z,85.17
2022-10-05T21:46:36.076Z,85.52
2022-10-05T21:49:02.812Z,85.43
2022-10-05T21:51:29.488Z,85.66
2022-10-05T21:54:02.789Z,85.82
2022-10-05T21:56:34.926Z,85.86
2022-10-05T21:59:09.978Z,85.85
2022-10-05T22:01:36.714Z,85.71
2022-10-05T22:04:04.950Z,86.07
2022-10-05T22:06:32.036Z,86.35
2022-10-05T22:08:59.501Z,86.63
2022-10-05T22:11:27.289Z,87.02
2022-10-05T22:13:53.732Z,87.15
2022-10-05T22:16:23.678Z,87.33
2022-10-05T22:18:50.719Z,87.08
2022-10-05T22:21:17.514Z,87.25
2022-10-05T22:23:45.946Z,87.54
2022-10-05T22:26:14.245Z,87.88
2022-10-05T22:28:42.565Z,87.56
2022-10-05T22:31:10.567Z,87.49
2022-10-05T22:33:39.775Z,87.64
2022-10-05T22:36:07.949Z,87.98
2022-10-05T22:38:34.541Z,88.39
2022-10-05T22:41:03.792Z,88.84
2022-10-05T22:43:30.371Z,88.71
2022-10-05T22:45:57.175Z,89.07
2022-10-05T22:48:23.557Z,89.16
2022-10-05T22:50:50.165Z,89.31
2022-10-05T22:53:16.851Z,89.81
2022-10-05T22:55:45.966Z,89.45
2022-10-05T22:58:12.545Z,89.30
2022-10-05T23:00:57.482Z,89.00
2022-10-05T23:03:25.867Z,89.36
2022-10-05T23:06:04.588Z,89.55
2022-10-05T23:08:32.634Z,89.01
2022-10-05T23:11:10.092Z,89.13
2022-10-05T23:13:36.917Z,88.93
2022-10-05T23:16:17.134Z,88.92
2022-10-05T23:18:44.817Z,88.76
2022-10-05T23:21:11.607Z,88.59
2022-10-05T23:23:40.272Z,88.51
2022-10-05T23:26:09.026Z,88.67
2022-10-05T23:28:35.675Z,88.86
2022-10-05T23:31:05.140Z,89.01
2022-10-05T23:33:32.135Z,89.24
2022-10-05T23:36:04.743Z,88.59
2022-10-05T23:38:31.611Z,88.45
2022-10-05T23:41:02.583Z,88.78
2022-10-05T23:43:29.352Z,88.81
2022-10-05T23:45:57.177Z,88.91
2022-10-05T23:48:23.998Z,88.99
2022-10-05T23:50:50.743Z,88.79
2022-10-05T23:53:18.716Z,88.70
2022-10-05T23:55:45.941Z,88.89
2022-10-05T23:58:12.385Z,88.66
